Burlington, WA

10:59 PM PDT on August 30, 2014 (GMT -0700)
Bow | Change Station
CLOSE
Current Station
Personal Weather Station
Location: Bow, WA
Elevation: 85 ft
Nearby Weather Stations

Elev 85 ft 48.54 °N, 122.37 °W | Updated 4 minutes ago

Overcast
Overcast
58.0 °F
Feels Like 58.0 °F
N
1.0
Wind Variable Wind from East
Gusts 2.0 mph

Today
High -- | Low -- °F
--% Chance of Precip.
Yesterday
High -- | Low -- °F
Precip. -- in
6:24 AM 7:54 PM
Waxing Crescent, 28% visible
Pressure 29.96 in
Visibility 10.0 miles
Clouds Scattered Clouds 4700 ft
Mostly Cloudy 6000 ft
Overcast 9000 ft
Dew Point 54 °F
Humidity 86%
Rainfall 0.04 in
Snow Depth Not available.
UV 0.0 out of 12
Pollen .60 out of 12
PM2.5 Good
Flu Activity Not available.
METAR KBVS 310555Z AUTO 00000KT 10SM SCT047 BKN060 OVC090 16/11 A2996 RMK A01 P000

More Conditions Fewer Conditions

Pressure 29.96 in
Visibility 10.0 miles
Clouds Scattered Clouds 4700 ft
Mostly Cloudy 6000 ft
Overcast 9000 ft
Dew Point 54 °F
Humidity 86%
Rainfall 0.04 in
Snow Depth Not available.
UV 0.0 out of 12
Pollen .60 out of 12
PM2.5 Good
Flu Activity Not available.
METAR KBVS 310555Z AUTO 00000KT 10SM SCT047 BKN060 OVC090 16/11 A2996 RMK A01 P000

More Conditions Fewer Conditions

10-Day Weather Forecast

Almanac

Astronomy

Aug. 30, 2014 Rise Set
Actual Time 6:24 AM PDT 7:54 PM PDT
Civil Twilight 5:51 AM PDT 8:27 PM PDT
Nautical Twilight 5:11 AM PDT 9:07 PM PDT
Astronomical Twilight 4:28 AM PDT 9:50 PM PDT
Moon 11:43 AM PDT (8/30) 10:05 PM PDT (8/30)
Length of Visible Light 14h 36m
Length of Day
13h 30m
Tomorrow will be 3m 24s shorter.
Waxing Crescent, 28% of the Moon is Illuminated
Aug 31
Waxing Crescent
Sep 2
First Quarter
Sep 8
Full
Sep 15
Last Quarter
Sep 24
New

Yesterday's Extremes

State Highs State Lows

Community

WunderPhotos

Upload Photos

1,748,790 photos uploaded!

Nearby

Air Quality

  Air Quality AQ Index Pollutant
Yesterday Good
OZONE
Yesterday Good
PM2.5
Current Good
PM2.5
Saturday Good
OZONE
Saturday Good
PM2.5
Sunday Good
OZONE
Sunday Good
PM2.5
Monday Good
OZONE
Monday Good
PM2.5
Tuesday Good
OZONE
Tuesday Good
PM2.5

Snow Depth

Station Depth Elevation
Dungeness 0 in 4100 ft
Beaver Pass 0 in 3620 ft
Alpine Meadows 0 in 3500 ft
Mount Crag 0 in 4050 ft
Waterhole 1 in 5000 ft

Earthquake Activity

City Distance Mag. Time & Date
No recent earthquake activity has been reported nearby.
Minimum magnitude displayed is 2.5.

Coastal Water Temperatures

Place Temperature
Port Townsend, WA 53.1 °F
Friday Harbor, WA 53.1 °F
Port Angeles, WA 52.0 °F

Nearby Weather Stations